Time;durP1;ratioP1;P1;durP2;ratioP2;P2;SDS_P1;SDS_P2;PMS_P1;PMS_P2;Temp;Humidity;BMP_temperature;BMP_pressure;BME280_temperature;BME280_humidity;BME280_pressure;Samples;Min_cycle;Max_cycle;Signal;HPM_P1;HPM_P2
2023/10/30 00:01:01;;;;;;;7.75;2.88;;;;;;;15.89;83.44;100879.94;5007770;28;20036;-68
2023/10/30 00:03:27;;;;;;;9.75;2.30;;;;;;;15.78;84.04;100882.25;5011590;28;20403;-68
2023/10/30 00:05:52;;;;;;;10.40;2.53;;;;;;;15.92;83.98;100879.13;5009169;28;20129;-68
2023/10/30 00:08:18;;;;;;;7.70;2.50;;;;;;;16.05;83.63;100872.44;5009197;28;20029;-68
2023/10/30 00:10:44;;;;;;;11.60;2.60;;;;;;;16.21;83.46;100865.81;5055205;28;20123;-69
2023/10/30 00:13:09;;;;;;;8.82;2.35;;;;;;;15.85;83.05;100787.00;5070522;28;20107;-69
2023/10/30 00:15:35;;;;;;;9.98;2.50;;;;;;;16.17;82.59;100847.56;5071089;28;20028;-68
2023/10/30 00:18:01;;;;;;;8.43;2.38;;;;;;;16.37;82.21;100869.63;5070801;28;20410;-68
2023/10/30 00:20:27;;;;;;;5.78;2.17;;;;;;;16.29;81.69;100859.91;5069991;28;20110;-69
2023/10/30 00:22:52;;;;;;;9.20;2.83;;;;;;;16.05;82.85;100869.84;5035043;28;20537;-69
2023/10/30 00:25:18;;;;;;;7.53;2.22;;;;;;;16.03;82.40;100871.56;5070541;28;20073;-69
2023/10/30 00:27:43;;;;;;;7.03;2.40;;;;;;;16.05;81.61;100846.41;5069924;28;20036;-70
2023/10/30 00:30:09;;;;;;;8.50;2.58;;;;;;;15.69;80.65;100777.97;5069959;28;20025;-70
2023/10/30 00:32:35;;;;;;;5.57;1.85;;;;;;;16.07;81.13;100866.41;5070796;28;20037;-69
2023/10/30 00:35:00;;;;;;;5.03;2.47;;;;;;;15.94;81.30;100877.44;5069966;28;20024;-69
2023/10/30 00:37:26;;;;;;;8.38;2.60;;;;;;;15.60;82.17;100890.56;5070240;28;20036;-69
2023/10/30 00:39:51;;;;;;;7.43;2.55;;;;;;;15.41;82.47;100880.56;5004858;28;20036;-67
2023/10/30 00:42:16;;;;;;;7.82;2.47;;;;;;;15.26;82.90;100881.94;5070354;28;20024;-69
2023/10/30 00:44:42;;;;;;;5.35;2.15;;;;;;;15.09;82.76;100857.22;5069143;28;20031;-69
2023/10/30 00:47:07;;;;;;;13.20;2.50;;;;;;;14.80;82.51;100813.19;5070260;28;20414;-68
2023/10/30 00:49:33;;;;;;;6.03;2.15;;;;;;;15.16;82.77;100887.75;5069138;28;20410;-72
2023/10/30 00:51:58;;;;;;;7.72;2.42;;;;;;;14.72;82.98;100798.28;5070138;28;20055;-68
2023/10/30 00:54:24;;;;;;;7.00;2.50;;;;;;;14.76;82.92;100791.44;5068976;28;20131;-69
2023/10/30 00:56:49;;;;;;;6.03;2.10;;;;;;;14.82;82.83;100793.31;5068271;28;20040;-69
2023/10/30 00:59:15;;;;;;;7.03;2.42;;;;;;;15.26;82.25;100862.84;5069559;28;20032;-68
2023/10/30 01:01:41;;;;;;;5.43;1.90;;;;;;;15.35;82.54;100876.97;5069953;28;20032;-67
2023/10/30 01:04:07;;;;;;;4.57;2.05;;;;;;;14.84;82.57;100794.22;5069778;28;20033;-68
2023/10/30 01:06:33;;;;;;;8.95;2.33;;;;;;;15.33;82.18;100888.19;5069502;28;20035;-68
2023/10/30 01:08:59;;;;;;;8.20;2.40;;;;;;;15.30;81.84;100882.88;5070205;28;20024;-66
2023/10/30 01:11:24;;;;;;;5.40;2.30;;;;;;;14.98;82.67;100865.66;5070074;28;20035;-68
2023/10/30 01:13:49;;;;;;;11.20;2.72;;;;;;;14.93;83.42;100881.97;5069856;28;20025;-68
2023/10/30 01:16:15;;;;;;;5.70;2.50;;;;;;;14.84;83.85;100882.59;5070161;28;20029;-68
2023/10/30 01:18:40;;;;;;;7.40;2.65;;;;;;;14.81;84.11;100878.22;5070361;28;20470;-68
2023/10/30 01:21:09;;;;;;;10.85;3.40;;;;;;;14.74;84.53;100889.28;5070240;28;20478;-69
2023/10/30 01:23:35;;;;;;;7.25;2.72;;;;;;;14.62;84.67;100887.22;5070050;28;20024;-69
2023/10/30 01:26:00;;;;;;;11.93;3.97;;;;;;;14.54;86.07;100889.59;5070030;28;20028;-69
2023/10/30 01:28:26;;;;;;;10.70;3.88;;;;;;;14.57;86.19;100883.63;5052087;28;20398;-70
2023/10/30 01:30:51;;;;;;;8.65;3.65;;;;;;;14.62;86.98;100897.59;5070119;28;20488;-68
2023/10/30 01:33:17;;;;;;;28.85;6.05;;;;;;;14.66;86.96;100890.81;5069768;28;20466;-73
2023/10/30 01:35:42;;;;;;;8.27;4.07;;;;;;;14.22;87.10;100810.81;5069919;28;20506;-68
2023/10/30 01:38:08;;;;;;;11.18;4.63;;;;;;;14.76;87.42;100891.94;5069751;28;20046;-68
2023/10/30 01:40:33;;;;;;;11.45;4.22;;;;;;;14.95;86.86;100895.88;5069789;28;20021;-70
2023/10/30 01:43:00;;;;;;;9.60;3.97;;;;;;;14.77;85.97;100839.13;5069768;28;20023;-69
2023/10/30 01:45:25;;;;;;;9.02;3.80;;;;;;;15.21;85.97;100896.53;5070052;28;20052;-68
2023/10/30 01:47:51;;;;;;;7.55;3.33;;;;;;;15.20;84.75;100892.19;5070087;28;20064;-68
2023/10/30 01:50:16;;;;;;;8.73;2.65;;;;;;;14.16;85.44;100737.94;5069794;28;20161;-67
2023/10/30 01:52:43;;;;;;;6.97;2.47;;;;;;;14.98;86.59;100878.66;5069904;28;20021;-67
2023/10/30 01:55:08;;;;;;;6.78;2.00;;;;;;;15.06;86.44;100896.19;5069796;28;20059;-67
2023/10/30 01:57:34;;;;;;;11.68;2.00;;;;;;;14.91;87.19;100887.13;5069721;28;20021;-68
2023/10/30 02:00:02;;;;;;;5.90;2.00;;;;;;;14.90;87.14;100884.50;5069717;28;20021;-68
2023/10/30 02:02:31;;;;;;;6.30;2.00;;;;;;;14.93;86.29;100882.84;5069834;28;20040;-68
2023/10/30 02:04:57;;;;;;;6.78;2.00;;;;;;;15.03;85.05;100895.25;5070004;28;20067;-70
2023/10/30 02:07:22;;;;;;;3.83;1.85;;;;;;;15.13;85.14;100885.97;5069920;28;20468;-68
2023/10/30 02:09:49;;;;;;;5.25;1.75;;;;;;;15.15;83.48;100878.19;5070194;28;20028;-69
2023/10/30 02:12:14;;;;;;;4.45;2.33;;;;;;;15.24;83.06;100882.72;5069911;28;20513;-68
2023/10/30 02:14:40;;;;;;;4.70;2.08;;;;;;;15.36;83.32;100886.53;5069414;28;20021;-69
2023/10/30 02:17:05;;;;;;;20.48;3.75;;;;;;;14.75;84.31;100804.41;5069830;28;20036;-66
2023/10/30 02:19:31;;;;;;;26.15;4.18;;;;;;;15.24;84.41;100883.63;5069724;28;20028;-69
2023/10/30 02:21:57;;;;;;;28.42;3.55;;;;;;;15.25;85.43;100881.91;5069574;28;20034;-67
2023/10/30 02:24:24;;;;;;;17.27;3.90;;;;;;;15.21;87.40;100880.94;5069746;28;20047;-69
2023/10/30 02:26:50;;;;;;;13.32;4.07;;;;;;;15.16;90.32;100879.94;5069739;28;20109;-68
2023/10/30 02:29:16;;;;;;;15.15;5.25;;;;;;;15.10;92.55;100877.19;5069859;28;20464;-68
2023/10/30 02:31:42;;;;;;;11.45;4.38;;;;;;;15.04;91.92;100877.91;5069302;28;20035;-68
2023/10/30 02:34:08;;;;;;;9.02;4.38;;;;;;;15.02;91.22;100879.63;5069366;28;20028;-68
2023/10/30 02:36:34;;;;;;;12.27;5.18;;;;;;;14.81;91.76;100872.13;5069552;28;20036;-69
2023/10/30 02:39:03;;;;;;;15.77;4.53;;;;;;;14.78;92.75;100877.25;5069122;28;20094;-68
2023/10/30 02:41:31;;;;;;;11.35;4.05;;;;;;;14.72;92.05;100883.19;5017192;28;20055;-68
2023/10/30 02:43:58;;;;;;;8.73;3.70;;;;;;;14.50;92.54;100874.75;5070310;28;20032;-68
2023/10/30 02:46:24;;;;;;;12.13;5.18;;;;;;;14.23;95.17;100886.16;5073322;28;20028;-66
2023/10/30 02:48:50;;;;;;;13.18;4.00;;;;;;;14.05;96.44;100878.69;5055086;28;20032;-68
2023/10/30 02:51:16;;;;;;;17.48;5.53;;;;;;;13.85;96.64;100851.28;5072273;28;20032;-69
2023/10/30 02:53:42;;;;;;;12.27;5.03;;;;;;;13.96;96.80;100886.22;5072282;28;20390;-69
2023/10/30 02:56:07;;;;;;;14.85;5.10;;;;;;;13.80;96.56;100884.00;5072932;28;20053;-68
2023/10/30 02:58:32;;;;;;;15.00;4.72;;;;;;;13.02;97.37;100808.06;5072959;28;20113;-68
2023/10/30 03:00:58;;;;;;;21.10;5.68;;;;;;;13.39;98.57;100887.06;5072743;28;20032;-69
2023/10/30 03:03:24;;;;;;;16.35;6.03;;;;;;;13.54;99.45;100889.25;5072837;28;20028;-68
2023/10/30 03:05:49;;;;;;;15.88;5.40;;;;;;;13.27;99.86;100859.88;5072700;28;20776;-67
2023/10/30 03:08:15;;;;;;;12.63;4.63;;;;;;;13.15;100.00;100885.41;5072265;28;20025;-68
2023/10/30 03:10:40;;;;;;;10.52;3.85;;;;;;;13.20;97.91;100896.78;5072667;28;20090;-68
2023/10/30 03:13:06;;;;;;;9.02;3.90;;;;;;;13.33;96.79;100895.47;5072523;28;20028;-69
2023/10/30 03:15:31;;;;;;;10.85;3.05;;;;;;;13.47;94.42;100895.06;5072480;28;20405;-66
2023/10/30 03:17:57;;;;;;;11.15;3.10;;;;;;;13.51;92.65;100891.78;5072677;28;20422;-70
2023/10/30 03:20:22;;;;;;;7.57;3.75;;;;;;;13.47;90.96;100897.66;5072383;28;20031;-66
2023/10/30 03:22:47;;;;;;;7.25;2.67;;;;;;;13.26;91.59;100899.59;5072102;28;20124;-68
2023/10/30 03:25:14;;;;;;;12.20;2.88;;;;;;;13.16;91.90;100894.03;5072576;28;20073;-68
2023/10/30 03:27:39;;;;;;;10.38;3.42;;;;;;;13.14;91.80;100898.31;5071981;28;20393;-68
2023/10/30 03:30:06;;;;;;;6.68;3.30;;;;;;;13.00;92.01;100884.91;5072230;28;20104;-68
2023/10/30 03:32:32;;;;;;;7.47;3.45;;;;;;;13.10;91.51;100900.78;5072321;28;20032;-68
2023/10/30 03:34:58;;;;;;;9.27;3.95;;;;;;;12.91;92.39;100896.69;5071973;28;20109;-67
2023/10/30 03:37:24;;;;;;;13.65;7.35;;;;;;;12.72;93.18;100899.47;5072298;28;20025;-65
2023/10/30 03:39:49;;;;;;;20.27;9.68;;;;;;;12.68;93.04;100898.47;5072158;28;20078;-73
2023/10/30 03:42:15;;;;;;;21.10;10.95;;;;;;;12.46;93.30;100866.66;5072236;28;20028;-68
2023/10/30 03:44:40;;;;;;;32.15;17.92;;;;;;;12.53;93.51;100898.81;5072082;28;20037;-69
2023/10/30 03:47:06;;;;;;;61.97;29.25;;;;;;;12.13;94.57;100874.94;5071744;28;20031;-67
2023/10/30 03:49:31;;;;;;;64.40;34.03;;;;;;;12.34;94.71;100881.75;5071805;28;20063;-68
2023/10/30 03:51:57;;;;;;;65.65;34.97;;;;;;;12.29;94.70;100886.75;5071518;28;20028;-68
2023/10/30 03:54:22;;;;;;;71.88;37.13;;;;;;;11.90;94.29;100791.28;5071368;28;20039;-69
2023/10/30 03:56:48;;;;;;;58.17;30.77;;;;;;;12.44;94.42;100893.31;5071730;28;20028;-67
2023/10/30 03:59:16;;;;;;;56.30;27.92;;;;;;;12.21;95.38;100857.13;5019645;28;20067;-68
2023/10/30 04:01:42;;;;;;;54.95;25.40;;;;;;;12.30;95.70;100870.41;5071507;28;20046;-68
2023/10/30 04:04:07;;;;;;;51.45;23.45;;;;;;;12.52;95.48;100885.81;5071532;28;20032;-68
2023/10/30 04:06:35;;;;;;;49.53;26.08;;;;;;;12.18;94.73;100812.13;5071219;28;20024;-69
2023/10/30 04:09:03;;;;;;;57.45;28.80;;;;;;;12.74;93.74;100882.28;5071494;28;20040;-69
2023/10/30 04:11:28;;;;;;;60.40;29.20;;;;;;;12.77;92.66;100884.97;5071759;28;20024;-67
2023/10/30 04:13:54;;;;;;;57.42;29.92;;;;;;;12.84;92.68;100881.75;5071278;28;20031;-68
2023/10/30 04:16:20;;;;;;;62.05;31.38;;;;;;;12.94;92.18;100895.91;5053514;28;20036;-69
2023/10/30 04:18:46;;;;;;;55.95;28.88;;;;;;;13.05;91.68;100884.19;5071339;28;20059;-68
2023/10/30 04:21:12;;;;;;;52.15;28.52;;;;;;;13.17;89.95;100886.34;5070761;28;20522;-68
2023/10/30 04:23:38;;;;;;;56.08;29.75;;;;;;;13.17;89.82;100885.44;5071244;28;20024;-68
2023/10/30 04:26:04;;;;;;;48.25;25.27;;;;;;;13.27;89.17;100888.38;5071074;28;20111;-68
2023/10/30 04:28:30;;;;;;;49.83;23.10;;;;;;;13.33;86.73;100892.00;5071060;28;20029;-68
2023/10/30 04:30:55;;;;;;;40.97;22.00;;;;;;;13.40;85.57;100897.47;5070921;28;20028;-68
2023/10/30 04:33:21;;;;;;;38.58;21.13;;;;;;;13.49;84.94;100896.88;5070718;28;20028;-68
2023/10/30 04:35:46;;;;;;;46.45;22.75;;;;;;;13.56;85.41;100895.38;5070695;28;20078;-70
2023/10/30 04:38:12;;;;;;;42.45;21.77;;;;;;;13.47;85.72;100897.66;5070706;28;20032;-67
2023/10/30 04:40:37;;;;;;;44.50;22.08;;;;;;;13.35;86.58;100909.38;5070998;28;20111;-66
2023/10/30 04:43:03;;;;;;;52.50;22.00;;;;;;;13.29;87.08;100904.00;5070689;28;20024;-69
2023/10/30 04:45:28;;;;;;;42.90;21.30;;;;;;;13.22;87.31;100894.25;5070739;28;20067;-69
2023/10/30 04:47:54;;;;;;;39.38;18.95;;;;;;;12.79;88.26;100865.19;5070827;28;20723;-68
2023/10/30 04:50:19;;;;;;;36.13;17.23;;;;;;;12.56;91.68;100911.00;5034844;28;20418;-71
2023/10/30 04:52:45;;;;;;;19.77;7.97;;;;;;;11.36;96.59;100837.47;5070990;28;20479;-69
2023/10/30 04:55:10;;;;;;;12.57;6.30;;;;;;;11.61;98.95;100935.91;5070730;28;20052;-68
2023/10/30 04:57:36;;;;;;;15.75;5.22;;;;;;;11.09;100.00;100898.44;5070670;28;20048;-69
2023/10/30 05:00:04;;;;;;;11.20;6.13;;;;;;;11.33;100.00;100932.16;5070459;28;20089;-68
2023/10/30 05:02:30;;;;;;;10.43;5.38;;;;;;;11.56;100.00;100928.75;5070217;28;20089;-68
2023/10/30 05:04:55;;;;;;;14.93;5.20;;;;;;;11.64;100.00;100932.53;5070450;28;20024;-68
2023/10/30 05:07:21;;;;;;;13.57;5.55;;;;;;;11.76;99.63;100937.31;5017974;28;20047;-68
2023/10/30 05:09:47;;;;;;;16.55;6.57;;;;;;;11.85;99.53;100937.69;5070515;28;20387;-68
2023/10/30 05:12:12;;;;;;;14.85;6.20;;;;;;;11.74;99.17;100908.81;5070290;28;20029;-68
2023/10/30 05:14:37;;;;;;;16.73;6.40;;;;;;;11.88;98.97;100942.97;5069672;28;20043;-69
2023/10/30 05:17:03;;;;;;;17.52;6.53;;;;;;;11.38;99.09;100862.56;5070393;28;20090;-68
2023/10/30 05:19:29;;;;;;;19.00;6.28;;;;;;;11.95;99.13;100946.66;5069993;28;20402;-69
2023/10/30 05:21:55;;;;;;;10.38;4.38;;;;;;;12.14;95.47;100943.13;5070200;28;20036;-68
2023/10/30 05:24:23;;;;;;;9.55;4.28;;;;;;;12.24;93.80;100946.97;5070450;28;20393;-68
2023/10/30 05:26:48;;;;;;;9.40;4.40;;;;;;;12.37;93.27;100943.13;5018077;28;20037;-68
2023/10/30 05:29:14;;;;;;;12.63;4.75;;;;;;;12.37;92.35;100945.69;5070427;28;20506;-67
2023/10/30 05:31:42;;;;;;;10.43;4.60;;;;;;;12.30;91.41;100936.84;5017894;28;20044;-68
2023/10/30 05:34:08;;;;;;;12.40;4.57;;;;;;;12.35;90.60;100944.75;5069716;28;20104;-67
2023/10/30 05:36:34;;;;;;;14.57;5.43;;;;;;;12.40;90.86;100938.03;5069423;28;20447;-68
2023/10/30 05:38:59;;;;;;;13.68;5.43;;;;;;;12.25;91.74;100904.69;5069358;28;20097;-69
2023/10/30 05:41:25;;;;;;;12.25;6.28;;;;;;;12.63;91.90;100962.19;5070203;28;20035;-68
2023/10/30 05:43:51;;;;;;;10.43;6.10;;;;;;;12.74;91.86;100952.22;5068952;28;20039;-69
2023/10/30 05:46:16;;;;;;;12.80;6.70;;;;;;;12.89;91.44;100952.75;5069763;28;20108;-68
2023/10/30 05:48:42;;;;;;;11.70;6.53;;;;;;;13.01;91.73;100948.84;5068566;28;20483;-68
2023/10/30 05:51:07;;;;;;;14.32;6.97;;;;;;;13.03;92.59;100962.75;5068929;28;20028;-69
2023/10/30 05:53:32;;;;;;;13.32;6.55;;;;;;;13.14;92.04;100957.94;5069055;28;20035;-68
2023/10/30 05:55:58;;;;;;;19.30;7.35;;;;;;;13.21;91.60;100968.56;5069265;28;20171;-68
2023/10/30 05:58:23;;;;;;;12.93;7.10;;;;;;;13.24;91.04;100945.31;5069161;28;20109;-67
2023/10/30 06:00:50;;;;;;;14.82;6.85;;;;;;;13.45;90.83;100961.59;5069231;28;20071;-68
2023/10/30 06:03:16;;;;;;;18.05;6.82;;;;;;;13.64;90.14;100965.66;5068693;28;20093;-69
2023/10/30 06:05:41;;;;;;;15.60;6.32;;;;;;;13.69;89.02;100957.19;5059127;28;20041;-68
2023/10/30 06:08:06;;;;;;;12.88;6.57;;;;;;;13.48;88.01;100894.25;5068851;28;20040;-68
2023/10/30 06:10:32;;;;;;;15.85;6.13;;;;;;;14.15;86.42;100969.84;5068966;28;20394;-71
2023/10/30 06:12:57;;;;;;;14.20;6.03;;;;;;;14.34;85.15;100969.56;5068917;28;20047;-68
2023/10/30 06:15:23;;;;;;;12.20;6.03;;;;;;;14.51;84.68;100972.66;5069306;28;20585;-67
2023/10/30 06:17:48;;;;;;;12.07;6.32;;;;;;;14.72;84.12;100971.53;5068771;28;20500;-70
2023/10/30 06:20:14;;;;;;;12.77;6.35;;;;;;;14.88;83.76;100968.53;5071856;28;20036;-70
2023/10/30 06:22:39;;;;;;;12.93;6.15;;;;;;;15.02;83.80;100971.47;5072050;28;20031;-68
2023/10/30 06:25:05;;;;;;;11.05;5.10;;;;;;;15.09;83.17;100974.25;5072210;28;20021;-68
2023/10/30 06:27:32;;;;;;;7.60;4.65;;;;;;;15.09;82.83;100971.66;5073303;28;20081;-69
2023/10/30 06:29:58;;;;;;;12.00;5.45;;;;;;;14.85;82.10;100902.56;5054511;28;20036;-68
2023/10/30 06:32:24;;;;;;;9.70;5.03;;;;;;;14.94;81.70;100905.41;5045235;28;20032;-69
2023/10/30 06:34:49;;;;;;;18.40;5.25;;;;;;;15.40;81.62;100980.25;5067039;28;20044;-68
2023/10/30 06:37:15;;;;;;;22.80;4.53;;;;;;;15.10;82.66;100981.22;5072361;28;20047;-68
2023/10/30 06:39:41;;;;;;;9.80;4.57;;;;;;;14.94;84.32;100977.31;5071966;28;20039;-68
2023/10/30 06:42:07;;;;;;;10.15;4.30;;;;;;;15.10;84.12;100978.63;5072893;28;20024;-68
2023/10/30 06:44:32;;;;;;;16.05;5.32;;;;;;;15.34;82.74;100979.25;5072098;28;20047;-66
2023/10/30 06:46:59;;;;;;;12.25;4.85;;;;;;;15.63;82.60;100986.03;5072322;28;20032;-69
2023/10/30 06:49:24;;;;;;;16.20;4.95;;;;;;;15.29;82.40;100905.44;5072726;28;20039;-68
2023/10/30 06:51:49;;;;;;;11.65;4.45;;;;;;;15.59;82.25;100990.28;5072265;28;20410;-68
2023/10/30 06:54:15;;;;;;;16.23;4.75;;;;;;;15.41;83.37;100982.00;5072061;28;20036;-69
2023/10/30 06:56:40;;;;;;;15.80;5.28;;;;;;;15.42;84.60;100983.78;5053835;28;20518;-69
2023/10/30 06:59:06;;;;;;;10.63;3.88;;;;;;;15.58;82.94;100978.13;5071836;28;20028;-69
2023/10/30 07:01:46;;;;;;;16.08;4.63;;;;;;;15.80;82.30;100978.63;5053676;28;20111;-70
2023/10/30 07:04:13;;;;;;;10.55;4.57;;;;;;;15.97;81.60;100981.66;5071623;28;20490;-68
2023/10/30 07:06:43;;;;;;;9.52;4.07;;;;;;;16.11;81.00;100981.97;5072824;28;20047;-67
2023/10/30 07:09:09;;;;;;;11.00;3.90;;;;;;;16.26;80.55;100979.72;5071843;28;20124;-69
2023/10/30 07:11:36;;;;;;;8.27;3.25;;;;;;;16.44;79.48;100978.34;5071824;28;20440;-67
2023/10/30 07:14:02;;;;;;;11.00;3.72;;;;;;;16.22;78.26;100899.72;5072138;28;20052;-70
2023/10/30 07:16:29;;;;;;;11.43;4.18;;;;;;;16.78;77.57;100971.19;5072302;28;20029;-68
2023/10/30 07:18:56;;;;;;;15.18;3.92;;;;;;;16.50;77.67;100895.94;5071611;28;20051;-67
2023/10/30 07:21:22;;;;;;;38.53;6.38;;;;;;;17.01;77.23;100976.00;5071594;28;20122;-68
2023/10/30 07:23:48;;;;;;;14.63;5.40;;;;;;;16.90;78.21;100970.56;5071576;28;20116;-68
2023/10/30 07:26:13;;;;;;;13.95;4.07;;;;;;;16.92;77.27;100971.50;5071361;28;20039;-68
2023/10/30 07:28:39;;;;;;;7.75;3.95;;;;;;;17.02;77.73;100972.56;5072020;28;20052;-68
2023/10/30 07:31:04;;;;;;;8.90;3.65;;;;;;;17.07;77.71;100966.59;5071079;28;20075;-74
2023/10/30 07:33:30;;;;;;;10.90;4.50;;;;;;;17.25;77.49;100971.25;5072023;28;20074;-67
2023/10/30 07:35:55;;;;;;;19.17;5.60;;;;;;;17.24;78.08;100943.38;5068018;28;20032;-70
2023/10/30 07:38:21;;;;;;;7.13;3.60;;;;;;;17.20;77.37;100894.63;5071268;28;20036;-68
2023/10/30 07:40:46;;;;;;;8.05;3.58;;;;;;;17.89;74.29;100961.81;5071317;28;20545;-69
2023/10/30 07:43:12;;;;;;;8.27;3.22;;;;;;;18.04;73.62;100961.19;5071231;28;20565;-69
2023/10/30 07:45:41;;;;;;;11.93;3.17;;;;;;;17.88;73.74;100907.81;5071327;28;20028;-67
2023/10/30 07:48:06;;;;;;;8.07;3.47;;;;;;;18.23;72.37;100960.59;5071186;28;20036;-70
2023/10/30 07:50:32;;;;;;;10.75;3.13;;;;;;;18.32;73.54;100944.16;5071541;28;20444;-67
2023/10/30 07:52:58;;;;;;;13.70;4.30;;;;;;;18.29;72.27;100928.41;5070824;28;20120;-68
2023/10/30 07:55:24;;;;;;;10.27;3.50;;;;;;;18.66;73.07;100968.06;5070846;28;20044;-67
2023/10/30 07:57:51;;;;;;;8.98;2.90;;;;;;;18.84;73.13;100961.28;5071488;28;20090;-69
2023/10/30 08:00:16;;;;;;;9.57;3.50;;;;;;;18.97;73.02;100970.22;5070367;28;20035;-69
2023/10/30 08:02:42;;;;;;;8.45;3.25;;;;;;;19.08;72.52;100963.34;5071538;28;20033;-68
2023/10/30 08:05:08;;;;;;;9.77;3.08;;;;;;;19.17;71.09;100959.94;5070596;28;20105;-68
2023/10/30 08:07:35;;;;;;;7.38;3.22;;;;;;;19.18;70.36;100949.47;5070809;28;20506;-69
2023/10/30 08:10:00;;;;;;;16.45;6.32;;;;;;;19.42;68.85;100966.25;5070719;28;20611;-68
2023/10/30 08:12:26;;;;;;;11.82;6.68;;;;;;;19.45;69.80;100945.34;5071170;28;20082;-69
2023/10/30 08:14:53;;;;;;;17.63;8.70;;;;;;;19.59;68.84;100955.03;5070341;28;20036;-68
2023/10/30 08:17:19;;;;;;;14.57;7.60;;;;;;;19.30;68.39;100896.34;5070182;28;20505;-68
2023/10/30 08:19:44;;;;;;;12.95;5.82;;;;;;;19.72;68.06;100962.13;5044116;28;20111;-68
2023/10/30 08:22:10;;;;;;;11.50;5.82;;;;;;;19.80;68.30;100957.81;5070575;28;20463;-67
2023/10/30 08:24:35;;;;;;;13.32;5.95;;;;;;;19.86;66.78;100952.66;5070010;28;20372;-67
2023/10/30 08:27:01;;;;;;;11.40;5.53;;;;;;;19.93;66.70;100955.31;5069891;28;20024;-69
2023/10/30 08:29:26;;;;;;;12.50;5.45;;;;;;;19.98;66.40;100948.34;5070464;28;20032;-69
2023/10/30 08:31:52;;;;;;;10.25;3.63;;;;;;;20.07;66.66;100952.75;5070962;28;20360;-67
2023/10/30 08:34:18;;;;;;;10.38;5.07;;;;;;;20.15;66.66;100936.22;5070074;28;20497;-68
2023/10/30 08:36:44;;;;;;;9.98;4.60;;;;;;;20.32;65.75;100948.50;5066379;28;20093;-70
2023/10/30 08:39:12;;;;;;;10.80;5.05;;;;;;;20.44;64.95;100943.31;5031868;28;20131;-69
2023/10/30 08:41:37;;;;;;;12.63;3.83;;;;;;;20.48;64.87;100939.81;5069167;28;20517;-68
2023/10/30 08:44:04;;;;;;;9.75;3.75;;;;;;;20.42;64.55;100937.19;5069690;28;20112;-68
2023/10/30 08:46:30;;;;;;;10.00;4.50;;;;;;;20.39;65.45;100937.19;5069493;28;20157;-69
2023/10/30 08:48:57;;;;;;;8.85;3.88;;;;;;;20.49;64.46;100933.72;5070554;28;20052;-67
2023/10/30 08:51:23;;;;;;;11.85;5.68;;;;;;;20.47;64.67;100939.81;5069481;28;20077;-69
2023/10/30 08:53:51;;;;;;;11.27;5.25;;;;;;;20.59;64.23;100932.00;5069498;28;20393;-68
2023/10/30 08:56:17;;;;;;;9.10;4.32;;;;;;;20.77;64.06;100930.31;5060337;28;20056;-69
2023/10/30 08:58:43;;;;;;;11.15;5.07;;;;;;;20.87;63.11;100918.09;5066024;28;20032;-68
2023/10/30 09:01:08;;;;;;;11.02;4.68;;;;;;;21.05;62.92;100925.13;5065524;28;20571;-67
2023/10/30 09:03:34;;;;;;;8.27;4.15;;;;;;;21.13;62.22;100918.13;5066688;28;20025;-68
2023/10/30 09:05:59;;;;;;;11.95;6.22;;;;;;;21.28;61.36;100925.13;5067473;28;20525;-70
2023/10/30 09:08:25;;;;;;;13.73;4.68;;;;;;;21.37;61.42;100916.38;5066766;28;20032;-69
2023/10/30 09:10:51;;;;;;;8.52;4.38;;;;;;;21.50;62.50;100918.13;4997182;28;20075;-69
2023/10/30 09:13:17;;;;;;;11.73;4.57;;;;;;;21.60;60.53;100919.88;5067488;28;20040;-68
2023/10/30 09:15:42;;;;;;;10.88;4.43;;;;;;;21.44;60.42;100871.72;5069222;28;20548;-69
2023/10/30 09:18:08;;;;;;;13.38;4.30;;;;;;;21.41;60.62;100837.59;5068499;28;20093;-69
2023/10/30 09:20:34;;;;;;;7.55;3.80;;;;;;;21.21;59.31;100784.22;5068237;28;20039;-69
2023/10/30 09:22:59;;;;;;;14.23;6.82;;;;;;;22.04;60.56;100902.25;5067676;28;20422;-69
2023/10/30 09:25:25;;;;;;;19.48;9.07;;;;;;;21.96;59.07;100870.75;5064685;28;20024;-71
2023/10/30 09:27:51;;;;;;;22.55;12.13;;;;;;;22.22;58.44;100908.31;5066911;28;20512;-70
2023/10/30 09:30:18;;;;;;;10.40;4.03;;;;;;;22.29;58.56;100899.53;5068015;28;20033;-70
2023/10/30 09:32:43;;;;;;;7.75;3.28;;;;;;;21.95;58.21;100823.44;5061712;28;20538;-69
2023/10/30 09:35:09;;;;;;;8.05;3.72;;;;;;;22.50;58.81;100900.34;5065194;28;20032;-69
2023/10/30 09:37:34;;;;;;;15.52;7.38;;;;;;;22.55;58.95;100893.28;5068592;28;20035;-69
2023/10/30 09:40:00;;;;;;;6.95;3.70;;;;;;;22.61;57.42;100890.63;5067700;28;20110;-70
2023/10/30 09:42:26;;;;;;;6.93;2.90;;;;;;;22.71;57.17;100887.03;5068416;28;20031;-69
2023/10/30 09:44:52;;;;;;;4.78;2.28;;;;;;;22.86;56.88;100885.19;5068653;28;20032;-71
2023/10/30 09:47:21;;;;;;;4.75;2.78;;;;;;;23.00;56.34;100885.94;5068302;28;20111;-69
2023/10/30 09:49:50;;;;;;;9.00;2.92;;;;;;;23.06;56.23;100875.38;5032461;28;20154;-67
2023/10/30 09:52:19;;;;;;;7.35;2.85;;;;;;;23.19;56.26;100872.66;5068135;28;20021;-69
2023/10/30 09:54:46;;;;;;;6.95;3.05;;;;;;;23.32;56.01;100865.53;5070928;28;20056;-69
2023/10/30 09:57:13;;;;;;;6.28;2.53;;;;;;;23.49;54.92;100873.25;5069022;28;20176;-68
2023/10/30 09:59:39;;;;;;;6.78;2.53;;;;;;;23.56;55.56;100862.66;5071386;28;20433;-70
2023/10/30 10:02:04;;;;;;;4.82;2.55;;;;;;;23.62;55.10;100860.84;5071209;28;20170;-68
2023/10/30 10:04:29;;;;;;;5.80;2.60;;;;;;;23.70;55.27;100870.41;5032654;28;20037;-70
2023/10/30 10:06:56;;;;;;;5.60;2.38;;;;;;;23.74;55.53;100851.03;5071531;28;20032;-70
2023/10/30 10:09:22;;;;;;;7.65;2.47;;;;;;;23.75;55.42;100851.88;5072693;28;20064;-68
2023/10/30 10:11:47;;;;;;;4.32;2.70;;;;;;;23.80;54.63;100841.28;5071341;28;20052;-70
2023/10/30 10:14:16;;;;;;;5.13;2.47;;;;;;;23.83;54.48;100838.63;5071380;28;20023;-67
2023/10/30 10:16:41;;;;;;;6.03;2.40;;;;;;;23.94;54.03;100834.13;5071770;28;20043;-69
2023/10/30 10:19:21;;;;;;;6.15;2.50;;;;;;;24.01;54.06;100837.56;5066732;28;20282;-70
2023/10/30 10:21:49;;;;;;;;;;;;;;;24.11;54.38;100833.03;5071362;28;20035;-68
2023/10/30 10:24:26;;;;;;;6.90;2.92;;;;;;;24.22;54.33;100833.75;5071683;28;19920;-69
2023/10/30 10:26:52;;;;;;;6.60;2.75;;;;;;;24.31;53.84;100828.38;5068827;28;20036;-69
2023/10/30 10:29:25;;;;;;;5.47;3.03;;;;;;;24.36;55.10;100830.91;5068617;28;20379;-69
2023/10/30 10:31:50;;;;;;;4.80;2.63;;;;;;;24.49;54.86;100829.00;5072495;28;20081;-71
2023/10/30 10:34:16;;;;;;;5.15;2.50;;;;;;;24.49;53.07;100806.09;5069194;28;20032;-70
2023/10/30 10:36:42;;;;;;;9.43;3.00;;;;;;;24.47;53.72;100804.38;5068534;28;20025;-72
2023/10/30 10:39:08;;;;;;;8.60;3.47;;;;;;;24.14;52.17;100746.81;5071867;28;20086;-72
2023/10/30 10:41:35;;;;;;;5.20;2.85;;;;;;;24.20;52.69;100761.66;5071099;28;20017;-71
2023/10/30 10:44:04;;;;;;;7.07;2.80;;;;;;;24.50;52.08;100802.56;5070916;28;20020;-71
2023/10/30 10:46:30;;;;;;;7.70;3.08;;;;;;;24.47;51.69;100796.47;5071588;28;20037;-74
2023/10/30 10:48:55;;;;;;;8.10;2.72;;;;;;;24.62;52.79;100814.69;5070551;28;20028;-70
2023/10/30 10:51:38;;;;;;;6.82;2.55;;;;;;;24.44;52.26;100749.03;5029650;28;20068;-70
2023/10/30 10:54:16;;;;;;;8.55;3.13;;;;;;;24.87;52.62;100809.91;5066860;28;20025;-69
2023/10/30 10:56:45;;;;;;;5.90;2.50;;;;;;;24.49;51.19;100737.47;5071216;28;20075;-69
2023/10/30 10:59:15;;;;;;;8.35;2.70;;;;;;;24.89;52.02;100801.97;5070552;28;20482;-70
2023/10/30 11:01:46;;;;;;;6.78;2.22;;;;;;;24.87;52.25;100802.00;5071739;28;20379;-70
2023/10/30 11:04:12;;;;;;;7.40;2.97;;;;;;;24.89;50.75;100794.03;5069158;28;20032;-69
2023/10/30 11:06:44;;;;;;;7.55;2.53;;;;;;;24.97;50.94;100789.50;5070802;28;20418;-69
2023/10/30 11:09:24;;;;;;;4.85;2.58;;;;;;;25.03;50.02;100789.41;5019464;28;20450;-69
2023/10/30 11:12:01;;;;;;;7.60;2.20;;;;;;;24.86;50.33;100792.34;5068990;28;20036;-69
2023/10/30 11:14:53;;;;;;;7.20;2.38;;;;;;;24.96;50.53;100787.75;5070637;28;20036;-69